Terminal Aerodrome Forecast
Issued by NWS Pueblo, CO

Home | Current Version | Previous Version | Text Only | Print | Product List | Glossary On
Versions: 1 2 3 4 5 6 7 8 9 10 11 12 13 14 15 16 17 18 19 20 21 22 23 24 25 26 27
000
FTUS45 KPUB 271343 AAC
TAFPUB
TAF AMD
KPUB 271343Z 2714/2812 28010KT P6SM VCSH OVC050
     FM271500 35014KT P6SM VCSH BKN050 BKN080
     FM271700 35014G24KT P6SM VCSH BKN080
     FM271900 36018G28KT P6SM BKN100
     FM280200 36009KT P6SM SCT120 SCT250
     FM280400 32006KT P6SM SCT250=

USA.gov is the U.S. government's official web portal to all federal, state and local government web resources and services.